sensor_id;sensor_type;location;lat;lon;timestamp;P1;durP1;ratioP1;P2;durP2;ratioP2
60935;SDS011;46804;51.786;19.520;2023-04-01T00:00:28;17.90;;;11.30;;
60935;SDS011;46804;51.786;19.520;2023-04-01T00:04:48;17.90;;;11.18;;
60935;SDS011;46804;51.786;19.520;2023-04-01T00:08:49;22.08;;;12.55;;
60935;SDS011;46804;51.786;19.520;2023-04-01T00:12:49;21.38;;;12.52;;
60935;SDS011;46804;51.786;19.520;2023-04-01T00:16:50;20.05;;;12.65;;
60935;SDS011;46804;51.786;19.520;2023-04-01T00:20:52;24.45;;;12.13;;
60935;SDS011;46804;51.786;19.520;2023-04-01T00:24:53;25.60;;;12.52;;
60935;SDS011;46804;51.786;19.520;2023-04-01T00:28:55;25.13;;;12.68;;
60935;SDS011;46804;51.786;19.520;2023-04-01T00:32:55;19.42;;;12.25;;
60935;SDS011;46804;51.786;19.520;2023-04-01T00:36:56;22.70;;;13.48;;
60935;SDS011;46804;51.786;19.520;2023-04-01T00:40:57;32.40;;;16.50;;
60935;SDS011;46804;51.786;19.520;2023-04-01T00:44:58;23.98;;;13.60;;
60935;SDS011;46804;51.786;19.520;2023-04-01T00:49:27;22.85;;;14.30;;
60935;SDS011;46804;51.786;19.520;2023-04-01T00:53:31;22.90;;;14.23;;
60935;SDS011;46804;51.786;19.520;2023-04-01T00:57:34;24.83;;;14.03;;
60935;SDS011;46804;51.786;19.520;2023-04-01T01:01:37;23.20;;;15.67;;
60935;SDS011;46804;51.786;19.520;2023-04-01T01:05:42;23.20;;;13.27;;
60935;SDS011;46804;51.786;19.520;2023-04-01T01:14:09;20.58;;;12.95;;
60935;SDS011;46804;51.786;19.520;2023-04-01T01:22:44;22.98;;;13.30;;
60935;SDS011;46804;51.786;19.520;2023-04-01T01:27:00;20.40;;;12.93;;
60935;SDS011;46804;51.786;19.520;2023-04-01T01:31:25;30.17;;;14.45;;
60935;SDS011;46804;51.786;19.520;2023-04-01T01:35:35;20.98;;;12.55;;
60935;SDS011;46804;51.786;19.520;2023-04-01T01:39:42;18.98;;;12.88;;
60935;SDS011;46804;51.786;19.520;2023-04-01T01:43:46;21.42;;;13.65;;
60935;SDS011;46804;51.786;19.520;2023-04-01T01:47:49;22.60;;;12.10;;
60935;SDS011;46804;51.786;19.520;2023-04-01T01:51:51;21.35;;;12.70;;
60935;SDS011;46804;51.786;19.520;2023-04-01T01:55:53;19.85;;;12.30;;
60935;SDS011;46804;51.786;19.520;2023-04-01T01:59:55;21.27;;;14.00;;
60935;SDS011;46804;51.786;19.520;2023-04-01T02:04:01;21.55;;;12.90;;
60935;SDS011;46804;51.786;19.520;2023-04-01T02:08:07;22.23;;;13.63;;
60935;SDS011;46804;51.786;19.520;2023-04-01T02:12:13;22.50;;;13.80;;
60935;SDS011;46804;51.786;19.520;2023-04-01T02:20:26;35.97;;;18.15;;
60935;SDS011;46804;51.786;19.520;2023-04-01T02:24:30;29.70;;;17.13;;
60935;SDS011;46804;51.786;19.520;2023-04-01T02:28:34;29.65;;;17.00;;
60935;SDS011;46804;51.786;19.520;2023-04-01T02:32:39;29.27;;;17.00;;
60935;SDS011;46804;51.786;19.520;2023-04-01T02:36:41;29.73;;;18.67;;
60935;SDS011;46804;51.786;19.520;2023-04-01T02:40:44;35.25;;;18.67;;
60935;SDS011;46804;51.786;19.520;2023-04-01T02:44:47;30.58;;;18.13;;
60935;SDS011;46804;51.786;19.520;2023-04-01T02:48:48;31.67;;;17.50;;
60935;SDS011;46804;51.786;19.520;2023-04-01T02:52:49;33.28;;;18.35;;
60935;SDS011;46804;51.786;19.520;2023-04-01T02:56:49;29.50;;;15.88;;
60935;SDS011;46804;51.786;19.520;2023-04-01T03:00:50;30.80;;;16.25;;
60935;SDS011;46804;51.786;19.520;2023-04-01T03:04:51;28.52;;;16.20;;
60935;SDS011;46804;51.786;19.520;2023-04-01T03:08:52;32.13;;;15.75;;
60935;SDS011;46804;51.786;19.520;2023-04-01T03:12:52;28.50;;;14.70;;
60935;SDS011;46804;51.786;19.520;2023-04-01T03:16:53;23.88;;;13.80;;
60935;SDS011;46804;51.786;19.520;2023-04-01T03:20:54;22.38;;;12.60;;
60935;SDS011;46804;51.786;19.520;2023-04-01T03:24:54;22.10;;;13.07;;
60935;SDS011;46804;51.786;19.520;2023-04-01T03:28:55;31.98;;;15.43;;
60935;SDS011;46804;51.786;19.520;2023-04-01T03:32:56;26.00;;;15.10;;
60935;SDS011;46804;51.786;19.520;2023-04-01T03:36:59;24.65;;;13.93;;
60935;SDS011;46804;51.786;19.520;2023-04-01T03:41:00;28.65;;;14.65;;
60935;SDS011;46804;51.786;19.520;2023-04-01T03:45:01;24.50;;;13.55;;
60935;SDS011;46804;51.786;19.520;2023-04-01T03:49:06;20.75;;;12.07;;
60935;SDS011;46804;51.786;19.520;2023-04-01T03:53:11;25.10;;;12.63;;
60935;SDS011;46804;51.786;19.520;2023-04-01T03:57:12;22.17;;;13.32;;
60935;SDS011;46804;51.786;19.520;2023-04-01T04:01:17;20.63;;;12.65;;
60935;SDS011;46804;51.786;19.520;2023-04-01T04:05:19;21.42;;;12.85;;
60935;SDS011;46804;51.786;19.520;2023-04-01T04:09:20;18.83;;;10.52;;
60935;SDS011;46804;51.786;19.520;2023-04-01T04:13:21;24.00;;;12.27;;
60935;SDS011;46804;51.786;19.520;2023-04-01T04:17:22;21.13;;;11.93;;
60935;SDS011;46804;51.786;19.520;2023-04-01T04:21:22;22.75;;;11.70;;
60935;SDS011;46804;51.786;19.520;2023-04-01T04:25:23;25.20;;;13.68;;
60935;SDS011;46804;51.786;19.520;2023-04-01T04:29:24;24.35;;;13.80;;
60935;SDS011;46804;51.786;19.520;2023-04-01T04:33:24;18.60;;;12.18;;
60935;SDS011;46804;51.786;19.520;2023-04-01T04:37:25;19.60;;;10.95;;
60935;SDS011;46804;51.786;19.520;2023-04-01T04:41:26;20.65;;;11.65;;
60935;SDS011;46804;51.786;19.520;2023-04-01T04:45:27;19.73;;;10.18;;
60935;SDS011;46804;51.786;19.520;2023-04-01T04:49:28;19.60;;;11.35;;
60935;SDS011;46804;51.786;19.520;2023-04-01T04:53:29;16.35;;;10.13;;
60935;SDS011;46804;51.786;19.520;2023-04-01T04:57:30;16.25;;;10.00;;
60935;SDS011;46804;51.786;19.520;2023-04-01T05:01:31;17.58;;;10.45;;
60935;SDS011;46804;51.786;19.520;2023-04-01T05:05:33;13.05;;;9.25;;
60935;SDS011;46804;51.786;19.520;2023-04-01T05:09:34;18.50;;;11.48;;
60935;SDS011;46804;51.786;19.520;2023-04-01T05:13:35;15.93;;;11.25;;
60935;SDS011;46804;51.786;19.520;2023-04-01T05:17:36;18.88;;;11.85;;
60935;SDS011;46804;51.786;19.520;2023-04-01T05:21:37;18.75;;;12.27;;
60935;SDS011;46804;51.786;19.520;2023-04-01T05:25:38;23.27;;;13.52;;
60935;SDS011;46804;51.786;19.520;2023-04-01T05:29:39;23.70;;;14.82;;
60935;SDS011;46804;51.786;19.520;2023-04-01T05:33:39;22.50;;;13.77;;
60935;SDS011;46804;51.786;19.520;2023-04-01T05:37:40;21.25;;;14.13;;
60935;SDS011;46804;51.786;19.520;2023-04-01T05:41:41;24.60;;;14.63;;
60935;SDS011;46804;51.786;19.520;2023-04-01T05:45:41;22.40;;;14.05;;
60935;SDS011;46804;51.786;19.520;2023-04-01T05:49:42;19.38;;;11.88;;
60935;SDS011;46804;51.786;19.520;2023-04-01T05:53:43;21.65;;;11.93;;
60935;SDS011;46804;51.786;19.520;2023-04-01T05:57:44;19.40;;;11.45;;
60935;SDS011;46804;51.786;19.520;2023-04-01T06:01:46;19.63;;;10.73;;
60935;SDS011;46804;51.786;19.520;2023-04-01T06:05:47;20.15;;;11.43;;
60935;SDS011;46804;51.786;19.520;2023-04-01T06:09:47;24.13;;;13.35;;
60935;SDS011;46804;51.786;19.520;2023-04-01T06:22:20;19.05;;;11.30;;
60935;SDS011;46804;51.786;19.520;2023-04-01T06:26:32;14.90;;;10.27;;
60935;SDS011;46804;51.786;19.520;2023-04-01T06:30:41;19.83;;;11.02;;
60935;SDS011;46804;51.786;19.520;2023-04-01T06:35:20;18.98;;;10.82;;
60935;SDS011;46804;51.786;19.520;2023-04-01T06:52:15;16.98;;;10.65;;
60935;SDS011;46804;51.786;19.520;2023-04-01T06:56:25;17.48;;;11.10;;
60935;SDS011;46804;51.786;19.520;2023-04-01T07:00:29;18.90;;;10.38;;
60935;SDS011;46804;51.786;19.520;2023-04-01T07:04:36;17.60;;;9.80;;
60935;SDS011;46804;51.786;19.520;2023-04-01T07:08:40;15.10;;;9.77;;
60935;SDS011;46804;51.786;19.520;2023-04-01T07:12:47;15.07;;;9.27;;
60935;SDS011;46804;51.786;19.520;2023-04-01T07:16:51;14.70;;;8.93;;
60935;SDS011;46804;51.786;19.520;2023-04-01T07:20:59;14.50;;;9.00;;
60935;SDS011;46804;51.786;19.520;2023-04-01T07:25:17;11.65;;;8.40;;
60935;SDS011;46804;51.786;19.520;2023-04-01T07:29:23;24.55;;;9.65;;
60935;SDS011;46804;51.786;19.520;2023-04-01T07:33:33;19.17;;;9.52;;
60935;SDS011;46804;51.786;19.520;2023-04-01T07:42:06;16.65;;;9.32;;
60935;SDS011;46804;51.786;19.520;2023-04-01T07:50:45;15.70;;;8.90;;
60935;SDS011;46804;51.786;19.520;2023-04-01T07:54:59;19.75;;;10.05;;
60935;SDS011;46804;51.786;19.520;2023-04-01T08:12:33;12.50;;;8.23;;
60935;SDS011;46804;51.786;19.520;2023-04-01T08:16:51;16.98;;;8.20;;
60935;SDS011;46804;51.786;19.520;2023-04-01T08:25:17;11.02;;;7.22;;
60935;SDS011;46804;51.786;19.520;2023-04-01T08:29:24;12.32;;;6.65;;
60935;SDS011;46804;51.786;19.520;2023-04-01T08:33:36;13.18;;;7.00;;
60935;SDS011;46804;51.786;19.520;2023-04-01T08:37:39;11.40;;;6.53;;
60935;SDS011;46804;51.786;19.520;2023-04-01T08:50:50;11.63;;;6.97;;
60935;SDS011;46804;51.786;19.520;2023-04-01T08:55:10;12.68;;;7.13;;
60935;SDS011;46804;51.786;19.520;2023-04-01T09:08:25;9.80;;;6.45;;
60935;SDS011;46804;51.786;19.520;2023-04-01T09:21:46;10.07;;;6.80;;
60935;SDS011;46804;51.786;19.520;2023-04-01T09:30:24;7.63;;;5.72;;
60935;SDS011;46804;51.786;19.520;2023-04-01T09:34:52;9.45;;;5.93;;
60935;SDS011;46804;51.786;19.520;2023-04-01T09:47:46;11.23;;;7.95;;
60935;SDS011;46804;51.786;19.520;2023-04-01T10:01:00;9.70;;;6.97;;
60935;SDS011;46804;51.786;19.520;2023-04-01T10:40:19;4.85;;;3.40;;
60935;SDS011;46804;51.786;19.520;2023-04-01T10:53:48;6.28;;;3.97;;
60935;SDS011;46804;51.786;19.520;2023-04-01T11:06:41;8.70;;;5.70;;
60935;SDS011;46804;51.786;19.520;2023-04-01T11:24:02;8.93;;;5.05;;
60935;SDS011;46804;51.786;19.520;2023-04-01T11:41:23;5.53;;;3.90;;
60935;SDS011;46804;51.786;19.520;2023-04-01T11:54:14;7.35;;;4.43;;
60935;SDS011;46804;51.786;19.520;2023-04-01T11:58:42;5.80;;;3.90;;
60935;SDS011;46804;51.786;19.520;2023-04-01T12:03:08;6.63;;;4.18;;
60935;SDS011;46804;51.786;19.520;2023-04-01T12:12:16;4.88;;;3.40;;
60935;SDS011;46804;51.786;19.520;2023-04-01T12:21:37;4.95;;;3.13;;
60935;SDS011;46804;51.786;19.520;2023-04-01T12:25:52;5.75;;;3.47;;
60935;SDS011;46804;51.786;19.520;2023-04-01T12:30:05;5.75;;;4.00;;
60935;SDS011;46804;51.786;19.520;2023-04-01T12:51:36;7.32;;;4.70;;
60935;SDS011;46804;51.786;19.520;2023-04-01T12:55:48;8.18;;;4.93;;
60935;SDS011;46804;51.786;19.520;2023-04-01T12:59:57;8.48;;;5.25;;
60935;SDS011;46804;51.786;19.520;2023-04-01T13:10:01;8.70;;;5.10;;
60935;SDS011;46804;51.786;19.520;2023-04-01T13:13:53;8.50;;;5.57;;
60935;SDS011;46804;51.786;19.520;2023-04-01T13:22:24;8.52;;;5.60;;
60935;SDS011;46804;51.786;19.520;2023-04-01T13:26:53;9.75;;;5.85;;
60935;SDS011;46804;51.786;19.520;2023-04-01T13:35:56;6.80;;;4.82;;
60935;SDS011;46804;51.786;19.520;2023-04-01T13:48:58;11.38;;;6.70;;
60935;SDS011;46804;51.786;19.520;2023-04-01T13:53:33;11.40;;;6.97;;
60935;SDS011;46804;51.786;19.520;2023-04-01T14:07:00;10.52;;;6.47;;
60935;SDS011;46804;51.786;19.520;2023-04-01T14:11:56;11.25;;;5.97;;
60935;SDS011;46804;51.786;19.520;2023-04-01T14:16:25;6.85;;;4.13;;
60935;SDS011;46804;51.786;19.520;2023-04-01T14:20:39;4.38;;;2.65;;
60935;SDS011;46804;51.786;19.520;2023-04-01T14:24:58;4.43;;;3.00;;
60935;SDS011;46804;51.786;19.520;2023-04-01T14:33:43;5.07;;;2.83;;
60935;SDS011;46804;51.786;19.520;2023-04-01T14:42:53;4.57;;;2.75;;
60935;SDS011;46804;51.786;19.520;2023-04-01T14:51:35;4.90;;;3.15;;
60935;SDS011;46804;51.786;19.520;2023-04-01T15:08:36;8.17;;;5.23;;
60935;SDS011;46804;51.786;19.520;2023-04-01T15:13:00;13.68;;;6.78;;
60935;SDS011;46804;51.786;19.520;2023-04-01T15:17:35;14.43;;;8.27;;
60935;SDS011;46804;51.786;19.520;2023-04-01T15:31:09;20.10;;;11.20;;
60935;SDS011;46804;51.786;19.520;2023-04-01T15:43:48;23.92;;;12.38;;
60935;SDS011;46804;51.786;19.520;2023-04-01T15:48:00;22.07;;;13.17;;
60935;SDS011;46804;51.786;19.520;2023-04-01T15:52:14;29.67;;;12.38;;
60935;SDS011;46804;51.786;19.520;2023-04-01T15:56:26;22.92;;;13.10;;
60935;SDS011;46804;51.786;19.520;2023-04-01T16:05:40;25.40;;;10.90;;
60935;SDS011;46804;51.786;19.520;2023-04-01T16:13:55;24.30;;;11.55;;
60935;SDS011;46804;51.786;19.520;2023-04-01T16:22:30;20.58;;;10.93;;
60935;SDS011;46804;51.786;19.520;2023-04-01T16:26:38;29.38;;;10.85;;
60935;SDS011;46804;51.786;19.520;2023-04-01T16:30:48;21.63;;;10.77;;
60935;SDS011;46804;51.786;19.520;2023-04-01T16:35:10;23.40;;;11.77;;
60935;SDS011;46804;51.786;19.520;2023-04-01T16:47:50;18.50;;;10.55;;
60935;SDS011;46804;51.786;19.520;2023-04-01T16:52:04;18.88;;;10.27;;
60935;SDS011;46804;51.786;19.520;2023-04-01T16:56:12;19.02;;;10.38;;
60935;SDS011;46804;51.786;19.520;2023-04-01T17:00:26;22.30;;;11.32;;
60935;SDS011;46804;51.786;19.520;2023-04-01T17:04:43;18.95;;;10.45;;
60935;SDS011;46804;51.786;19.520;2023-04-01T17:13:35;17.95;;;10.02;;
60935;SDS011;46804;51.786;19.520;2023-04-01T17:22:10;19.75;;;11.20;;
60935;SDS011;46804;51.786;19.520;2023-04-01T17:34:52;21.77;;;10.88;;
60935;SDS011;46804;51.786;19.520;2023-04-01T17:39:20;25.10;;;12.02;;
60935;SDS011;46804;51.786;19.520;2023-04-01T17:52:16;22.65;;;13.18;;
60935;SDS011;46804;51.786;19.520;2023-04-01T17:56:41;26.50;;;12.43;;
60935;SDS011;46804;51.786;19.520;2023-04-01T18:01:00;27.52;;;14.73;;
60935;SDS011;46804;51.786;19.520;2023-04-01T18:05:22;29.80;;;13.25;;
60935;SDS011;46804;51.786;19.520;2023-04-01T18:13:52;28.70;;;14.75;;
60935;SDS011;46804;51.786;19.520;2023-04-01T18:18:11;25.90;;;13.40;;
60935;SDS011;46804;51.786;19.520;2023-04-01T18:26:39;33.00;;;12.15;;
60935;SDS011;46804;51.786;19.520;2023-04-01T18:30:45;33.35;;;12.68;;
60935;SDS011;46804;51.786;19.520;2023-04-01T18:34:59;22.20;;;12.10;;
60935;SDS011;46804;51.786;19.520;2023-04-01T18:39:13;28.40;;;12.18;;
60935;SDS011;46804;51.786;19.520;2023-04-01T18:43:56;23.40;;;12.13;;
60935;SDS011;46804;51.786;19.520;2023-04-01T18:48:08;23.27;;;12.38;;
60935;SDS011;46804;51.786;19.520;2023-04-01T18:52:36;21.88;;;11.80;;
60935;SDS011;46804;51.786;19.520;2023-04-01T18:56:39;29.15;;;12.48;;
60935;SDS011;46804;51.786;19.520;2023-04-01T19:00:45;20.98;;;12.48;;
60935;SDS011;46804;51.786;19.520;2023-04-01T19:04:57;28.83;;;12.30;;
60935;SDS011;46804;51.786;19.520;2023-04-01T19:09:48;27.08;;;11.43;;
60935;SDS011;46804;51.786;19.520;2023-04-01T19:18:33;25.67;;;11.23;;
60935;SDS011;46804;51.786;19.520;2023-04-01T19:31:50;18.95;;;11.80;;
60935;SDS011;46804;51.786;19.520;2023-04-01T19:35:57;22.60;;;11.43;;
60935;SDS011;46804;51.786;19.520;2023-04-01T19:40:13;19.67;;;11.10;;
60935;SDS011;46804;51.786;19.520;2023-04-01T19:48:56;18.60;;;10.52;;
60935;SDS011;46804;51.786;19.520;2023-04-01T19:53:21;25.35;;;12.82;;
60935;SDS011;46804;51.786;19.520;2023-04-01T19:57:44;27.48;;;12.63;;
60935;SDS011;46804;51.786;19.520;2023-04-01T20:02:12;29.83;;;12.13;;
60935;SDS011;46804;51.786;19.520;2023-04-01T20:06:35;30.02;;;12.45;;
60935;SDS011;46804;51.786;19.520;2023-04-01T20:10:54;24.80;;;12.30;;
60935;SDS011;46804;51.786;19.520;2023-04-01T20:15:03;23.92;;;13.02;;
60935;SDS011;46804;51.786;19.520;2023-04-01T20:19:35;29.33;;;12.30;;
60935;SDS011;46804;51.786;19.520;2023-04-01T20:23:41;27.15;;;11.95;;
60935;SDS011;46804;51.786;19.520;2023-04-01T20:40:46;36.70;;;11.95;;
60935;SDS011;46804;51.786;19.520;2023-04-01T20:44:52;24.40;;;11.80;;
60935;SDS011;46804;51.786;19.520;2023-04-01T20:49:13;27.95;;;11.57;;
60935;SDS011;46804;51.786;19.520;2023-04-01T20:53:24;40.22;;;10.82;;
60935;SDS011;46804;51.786;19.520;2023-04-01T20:57:37;19.98;;;9.25;;
60935;SDS011;46804;51.786;19.520;2023-04-01T21:01:58;20.73;;;9.85;;
60935;SDS011;46804;51.786;19.520;2023-04-01T21:06:10;19.10;;;9.93;;
60935;SDS011;46804;51.786;19.520;2023-04-01T21:19:01;21.15;;;10.05;;
60935;SDS011;46804;51.786;19.520;2023-04-01T21:23:20;20.65;;;9.80;;
60935;SDS011;46804;51.786;19.520;2023-04-01T21:31:53;20.17;;;10.40;;
60935;SDS011;46804;51.786;19.520;2023-04-01T21:57:59;17.75;;;8.95;;
60935;SDS011;46804;51.786;19.520;2023-04-01T22:06:38;13.45;;;8.13;;
60935;SDS011;46804;51.786;19.520;2023-04-01T22:10:48;10.23;;;6.63;;
60935;SDS011;46804;51.786;19.520;2023-04-01T22:14:57;10.18;;;6.57;;
60935;SDS011;46804;51.786;19.520;2023-04-01T22:19:17;9.32;;;5.65;;
60935;SDS011;46804;51.786;19.520;2023-04-01T22:23:27;8.68;;;5.50;;
60935;SDS011;46804;51.786;19.520;2023-04-01T22:27:46;10.43;;;5.90;;
60935;SDS011;46804;51.786;19.520;2023-04-01T22:40:21;10.32;;;5.57;;
60935;SDS011;46804;51.786;19.520;2023-04-01T22:53:04;11.30;;;6.30;;
60935;SDS011;46804;51.786;19.520;2023-04-01T23:01:38;17.08;;;6.57;;
60935;SDS011;46804;51.786;19.520;2023-04-01T23:05:56;12.48;;;6.22;;
60935;SDS011;46804;51.786;19.520;2023-04-01T23:10:15;11.95;;;5.80;;
60935;SDS011;46804;51.786;19.520;2023-04-01T23:18:36;9.32;;;6.28;;
60935;SDS011;46804;51.786;19.520;2023-04-01T23:27:35;8.00;;;5.80;;
60935;SDS011;46804;51.786;19.520;2023-04-01T23:31:44;9.13;;;5.93;;
60935;SDS011;46804;51.786;19.520;2023-04-01T23:35:47;8.30;;;5.60;;
60935;SDS011;46804;51.786;19.520;2023-04-01T23:40:06;9.10;;;5.97;;
60935;SDS011;46804;51.786;19.520;2023-04-01T23:44:13;9.77;;;6.22;;
60935;SDS011;46804;51.786;19.520;2023-04-01T23:48:15;19.30;;;6.38;;
60935;SDS011;46804;51.786;19.520;2023-04-01T23:52:26;12.85;;;6.15;;
60935;SDS011;46804;51.786;19.520;2023-04-01T23:56:35;11.43;;;6.60;;
